createdAt,value
2022-08-07T00:00:25.554Z,76.93
2022-08-07T00:02:53.739Z,76.63
2022-08-07T00:05:23.713Z,76.93
2022-08-07T00:07:59.865Z,77.43
2022-08-07T00:10:29.770Z,77.36
2022-08-07T00:13:23.538Z,77.54
2022-08-07T00:15:52.662Z,77.96
2022-08-07T00:18:24.351Z,78.09
2022-08-07T00:20:54.893Z,78.00
2022-08-07T00:23:24.894Z,77.05
2022-08-07T00:26:00.188Z,76.64
2022-08-07T00:28:33.384Z,76.59
2022-08-07T00:31:12.764Z,76.63
2022-08-07T00:33:43.603Z,76.60
2022-08-07T00:36:14.539Z,76.45
2022-08-07T00:38:43.887Z,76.30
2022-08-07T00:41:14.675Z,76.39
2022-08-07T00:44:01.748Z,76.33
2022-08-07T00:46:32.816Z,76.88
2022-08-07T00:49:03.149Z,76.76
2022-08-07T00:51:58.368Z,77.01
2022-08-07T00:54:19.769Z,77.69
2022-08-07T00:56:49.571Z,78.10
2022-08-07T00:59:19.961Z,78.52
2022-08-07T01:01:48.655Z,78.69
2022-08-07T01:04:21.561Z,78.67
2022-08-07T01:06:52.132Z,79.11
2022-08-07T01:10:06.373Z,80.10
2022-08-07T01:12:28.147Z,80.83
2022-08-07T01:15:01.523Z,80.99
2022-08-07T01:17:32.344Z,81.05
2022-08-07T01:20:06.688Z,81.11
2022-08-07T01:22:46.471Z,81.03
2022-08-07T01:25:40.338Z,80.75
2022-08-07T01:28:09.007Z,80.64
2022-08-07T01:30:40.100Z,80.66
2022-08-07T01:33:10.037Z,80.73
2022-08-07T01:35:53.378Z,80.84
2022-08-07T01:38:25.131Z,80.86
2022-08-07T01:40:59.397Z,80.72
2022-08-07T01:43:34.677Z,80.51
2022-08-07T01:46:08.333Z,80.31
2022-08-07T01:48:46.805Z,80.35
2022-08-07T01:52:04.299Z,80.39
2022-08-07T01:54:32.490Z,80.55
2022-08-07T01:57:08.381Z,80.26
2022-08-07T01:59:46.125Z,80.10
2022-08-07T02:03:11.477Z,79.88
2022-08-07T02:05:15.985Z,79.57
2022-08-07T02:08:08.645Z,79.40
2022-08-07T02:10:42.290Z,79.10
2022-08-07T02:13:13.459Z,79.20
2022-08-07T02:15:53.287Z,79.30
2022-08-07T02:18:22.220Z,79.59
2022-08-07T02:20:55.920Z,79.83
2022-08-07T02:23:26.177Z,80.15
2022-08-07T02:26:31.043Z,80.53
2022-08-07T02:28:42.986Z,80.70
2022-08-07T02:31:18.872Z,80.81
2022-08-07T02:34:03.523Z,80.64
2022-08-07T02:36:41.458Z,80.61
2022-08-07T02:39:17.473Z,80.86
2022-08-07T02:42:02.682Z,81.02
2022-08-07T02:44:34.326Z,80.96
2022-08-07T02:47:05.260Z,80.90
2022-08-07T02:49:57.852Z,80.77
2022-08-07T02:52:30.958Z,80.71
2022-08-07T02:55:05.010Z,80.56
2022-08-07T02:57:55.615Z,80.85
2022-08-07T03:00:27.147Z,80.95
2022-08-07T03:02:58.804Z,80.89
2022-08-07T03:05:29.200Z,80.95
2022-08-07T03:08:10.523Z,80.53
2022-08-07T03:10:46.630Z,80.47
2022-08-07T03:13:19.771Z,80.46
2022-08-07T03:15:56.345Z,80.27
2022-08-07T03:18:34.728Z,80.36
2022-08-07T03:21:08.622Z,80.33
2022-08-07T03:24:19.246Z,80.63
2022-08-07T03:26:32.238Z,80.89
2022-08-07T03:29:04.202Z,80.84
2022-08-07T03:31:42.521Z,80.91
2022-08-07T03:34:18.198Z,80.81
2022-08-07T03:36:46.179Z,80.59
2022-08-07T03:39:18.005Z,80.75
2022-08-07T03:42:07.582Z,80.50
2022-08-07T03:44:38.046Z,80.20
2022-08-07T03:47:13.398Z,80.12
2022-08-07T03:49:47.719Z,79.61
2022-08-07T03:52:26.390Z,79.43
2022-08-07T03:55:07.171Z,79.59
2022-08-07T03:58:33.315Z,79.88
2022-08-07T04:00:29.372Z,80.09
2022-08-07T04:03:04.369Z,80.24
2022-08-07T04:05:41.037Z,80.60
2022-08-07T04:08:16.141Z,80.73
2022-08-07T04:10:54.276Z,81.15
2022-08-07T04:14:10.726Z,81.04
2022-08-07T04:16:31.196Z,81.07
2022-08-07T04:19:12.435Z,81.02
2022-08-07T04:21:59.526Z,80.96
2022-08-07T04:24:38.687Z,80.52
2022-08-07T04:27:15.121Z,80.45
2022-08-07T04:30:02.313Z,80.47
2022-08-07T04:32:39.341Z,79.82
2022-08-07T04:35:13.087Z,79.65
2022-08-07T04:38:02.789Z,79.43
2022-08-07T04:40:29.803Z,79.14
2022-08-07T04:43:01.675Z,78.86
2022-08-07T04:45:58.035Z,78.49
2022-08-07T04:48:38.185Z,78.41
2022-08-07T04:51:12.521Z,78.27
2022-08-07T04:54:05.348Z,78.29
2022-08-07T04:58:10.234Z,78.37
2022-08-07T05:00:09.920Z,78.49
2022-08-07T05:02:32.465Z,78.71
2022-08-07T05:05:11.484Z,78.10
2022-08-07T05:07:51.791Z,76.75
2022-08-07T05:10:42.931Z,75.74
2022-08-07T05:14:52.819Z,75.39
2022-08-07T05:16:07.978Z,74.72
2022-08-07T05:18:41.188Z,74.24
2022-08-07T05:21:10.659Z,73.62
2022-08-07T05:23:45.468Z,73.92
2022-08-07T05:26:23.818Z,73.99
2022-08-07T05:28:58.114Z,73.68
2022-08-07T05:31:35.048Z,72.85
2022-08-07T05:34:10.937Z,72.07
2022-08-07T05:36:44.150Z,72.22
2022-08-07T05:40:14.007Z,72.35
2022-08-07T05:42:13.406Z,71.96
2022-08-07T05:44:52.784Z,71.07
2022-08-07T05:47:37.857Z,69.85
2022-08-07T05:50:19.537Z,69.32
2022-08-07T05:52:47.591Z,68.86
2022-08-07T05:55:15.093Z,67.84
2022-08-07T05:57:46.245Z,67.59
2022-08-07T06:00:16.560Z,67.13
2022-08-07T06:02:51.820Z,66.27
2022-08-07T06:05:28.453Z,66.40
2022-08-07T06:08:29.475Z,65.28
2022-08-07T06:10:51.311Z,64.50
2022-08-07T06:13:20.902Z,63.53
2022-08-07T06:16:08.263Z,62.57
2022-08-07T06:18:39.826Z,62.39
2022-08-07T06:22:15.469Z,62.63
2022-08-07T06:24:45.762Z,62.35
2022-08-07T06:26:46.792Z,60.51
2022-08-07T06:29:14.487Z,59.79
2022-08-07T06:31:49.800Z,59.64
2022-08-07T06:34:20.421Z,58.82
2022-08-07T06:36:51.844Z,57.95
2022-08-07T06:40:16.130Z,57.80
2022-08-07T06:42:15.714Z,57.36
2022-08-07T06:44:54.762Z,56.42
2022-08-07T06:47:24.039Z,56.73
2022-08-07T06:49:58.592Z,56.16
2022-08-07T06:52:35.531Z,55.09
2022-08-07T06:55:33.714Z,54.28
2022-08-07T06:57:59.454Z,53.49
2022-08-07T07:00:32.307Z,54.36
2022-08-07T07:03:11.008Z,54.09
2022-08-07T07:06:04.151Z,55.25
2022-08-07T07:08:29.283Z,55.83
2022-08-07T07:10:57.879Z,56.91
2022-08-07T07:13:55.669Z,57.09
2022-08-07T07:16:30.019Z,56.63
2022-08-07T07:19:54.378Z,57.53
2022-08-07T07:22:05.138Z,57.71
2022-08-07T07:24:43.113Z,56.88
2022-08-07T07:27:28.007Z,55.68
2022-08-07T07:30:09.038Z,54.84
2022-08-07T07:32:42.706Z,55.61
2022-08-07T07:35:12.223Z,56.56
2022-08-07T07:37:52.621Z,54.82
2022-08-07T07:40:32.409Z,54.34
2022-08-07T07:43:11.568Z,53.13
2022-08-07T07:46:37.565Z,51.67
2022-08-07T07:48:36.050Z,52.11
2022-08-07T07:51:08.003Z,52.57
2022-08-07T07:53:51.289Z,52.31
2022-08-07T07:56:29.757Z,52.47
2022-08-07T07:59:01.705Z,52.93
2022-08-07T08:02:03.776Z,52.28
2022-08-07T08:04:20.246Z,52.00
2022-08-07T08:06:53.985Z,51.32
2022-08-07T08:09:29.528Z,51.20
2022-08-07T08:12:02.335Z,51.71
2022-08-07T08:14:34.328Z,51.77
2022-08-07T08:17:56.682Z,52.18
2022-08-07T08:20:18.714Z,52.09
2022-08-07T08:23:02.240Z,51.31
2022-08-07T08:25:49.023Z,51.85
2022-08-07T08:28:43.404Z,51.27
2022-08-07T08:31:22.837Z,51.29
2022-08-07T08:33:58.727Z,51.74
2022-08-07T08:36:30.250Z,51.86
2022-08-07T08:39:02.128Z,51.59
2022-08-07T08:41:57.123Z,50.75
2022-08-07T08:44:44.586Z,49.60
2022-08-07T08:47:22.211Z,50.63
2022-08-07T08:50:05.694Z,49.58
2022-08-07T08:52:51.576Z,49.39
2022-08-07T08:55:54.762Z,49.46
2022-08-07T08:58:43.305Z,50.07
2022-08-07T09:01:19.211Z,49.73
2022-08-07T09:04:07.256Z,49.28
2022-08-07T09:06:57.627Z,49.06
2022-08-07T09:09:42.799Z,49.71
2022-08-07T09:12:31.835Z,47.80
2022-08-07T09:16:21.759Z,48.27
2022-08-07T09:18:22.873Z,47.20
2022-08-07T09:21:13.910Z,46.42
2022-08-07T09:24:58.747Z,45.53
2022-08-07T09:28:00.757Z,45.50
2022-08-07T09:30:48.839Z,45.28
2022-08-07T09:33:57.956Z,46.40
2022-08-07T09:36:35.906Z,45.16
2022-08-07T09:39:53.083Z,44.06
2022-08-07T09:42:33.606Z,42.86
2022-08-07T09:47:24.104Z,41.56
2022-08-07T09:50:02.499Z,42.23
2022-08-07T09:52:10.190Z,42.34
2022-08-07T09:54:48.005Z,41.52
2022-08-07T09:57:46.860Z,41.29
2022-08-07T10:00:20.338Z,39.06
2022-08-07T10:04:06.153Z,37.69
2022-08-07T10:06:19.790Z,36.22
2022-08-07T10:09:08.734Z,35.70
2022-08-07T10:12:01.518Z,36.04
2022-08-07T10:14:31.991Z,36.47
2022-08-07T10:17:16.950Z,35.63
2022-08-07T10:19:53.067Z,35.23
2022-08-07T10:22:51.055Z,35.41
2022-08-07T10:25:52.967Z,34.45
2022-08-07T10:28:37.003Z,34.63
2022-08-07T10:31:21.277Z,34.89
2022-08-07T10:34:15.506Z,34.49
2022-08-07T10:36:58.539Z,34.69
2022-08-07T10:39:41.713Z,35.42
2022-08-07T10:42:37.362Z,34.90
2022-08-07T10:45:45.404Z,34.78
2022-08-07T10:48:20.032Z,35.38
2022-08-07T10:50:54.406Z,36.08
2022-08-07T10:53:44.883Z,35.49
2022-08-07T10:56:37.129Z,36.40
2022-08-07T10:59:06.858Z,35.71
2022-08-07T11:01:52.060Z,36.41
2022-08-07T11:04:46.302Z,36.26
2022-08-07T11:07:58.833Z,36.80
2022-08-07T11:10:27.534Z,36.33
2022-08-07T11:13:02.833Z,34.96
2022-08-07T11:15:35.622Z,35.12
2022-08-07T11:18:14.188Z,35.74
2022-08-07T11:20:49.323Z,35.49
2022-08-07T11:23:30.739Z,35.39
2022-08-07T11:26:25.579Z,34.40
2022-08-07T11:29:05.729Z,34.82
2022-08-07T11:31:56.631Z,34.97
2022-08-07T11:34:40.979Z,34.33
2022-08-07T11:37:38.473Z,34.76
2022-08-07T11:40:36.118Z,34.29
2022-08-07T11:43:15.366Z,33.96
2022-08-07T11:46:14.064Z,34.70
2022-08-07T11:49:50.267Z,33.74
2022-08-07T11:52:19.221Z,35.38
2022-08-07T11:56:15.658Z,33.66
2022-08-07T11:58:33.416Z,33.48
2022-08-07T12:01:20.124Z,32.79
2022-08-07T12:04:12.105Z,32.18
2022-08-07T12:06:50.897Z,32.76
2022-08-07T12:09:29.065Z,33.28
2022-08-07T12:12:10.913Z,32.89
2022-08-07T12:14:55.999Z,33.47
2022-08-07T12:17:38.238Z,33.43
2022-08-07T12:20:26.310Z,31.96
2022-08-07T12:23:01.854Z,32.21
2022-08-07T12:26:21.393Z,32.05
2022-08-07T12:28:49.798Z,32.80
2022-08-07T12:31:52.905Z,32.69
2022-08-07T12:34:34.843Z,32.19
2022-08-07T12:37:08.291Z,33.28
2022-08-07T12:39:50.818Z,32.97
2022-08-07T12:42:27.815Z,32.93
2022-08-07T12:44:58.131Z,33.66
2022-08-07T12:47:37.522Z,34.59
2022-08-07T12:50:38.078Z,32.25
2022-08-07T12:53:29.337Z,32.84
2022-08-07T12:56:22.102Z,33.57
2022-08-07T12:58:56.893Z,33.78
2022-08-07T13:01:40.236Z,33.09
2022-08-07T13:04:34.589Z,33.78
2022-08-07T13:08:12.136Z,32.93
2022-08-07T13:10:39.846Z,32.61
2022-08-07T13:13:48.535Z,33.28
2022-08-07T13:16:36.745Z,32.85
2022-08-07T13:19:34.887Z,31.72
2022-08-07T13:22:27.577Z,31.08
2022-08-07T13:25:03.085Z,31.11
2022-08-07T13:28:11.127Z,33.18
2022-08-07T13:30:41.399Z,31.55
2022-08-07T13:34:33.648Z,30.70
2022-08-07T13:36:25.728Z,28.67
2022-08-07T13:39:49.749Z,28.68
2022-08-07T13:42:19.286Z,30.65
2022-08-07T13:44:55.511Z,30.11
2022-08-07T13:48:07.819Z,29.91
2022-08-07T13:50:32.956Z,30.44
2022-08-07T13:53:21.955Z,30.31
2022-08-07T13:55:54.587Z,31.21
2022-08-07T13:58:40.762Z,31.23
2022-08-07T14:01:13.195Z,31.06
2022-08-07T14:04:07.216Z,31.60
2022-08-07T14:06:34.460Z,31.89
2022-08-07T14:09:04.666Z,32.13
2022-08-07T14:12:00.291Z,32.25
2022-08-07T14:14:43.629Z,31.93
2022-08-07T14:18:13.193Z,32.27
2022-08-07T14:20:40.473Z,33.55
2022-08-07T14:23:09.219Z,32.58
2022-08-07T14:25:47.931Z,32.90
2022-08-07T14:28:18.143Z,32.81
2022-08-07T14:30:52.294Z,33.88
2022-08-07T14:33:22.356Z,33.34
2022-08-07T14:35:55.842Z,33.34
2022-08-07T14:41:18.286Z,34.47
2022-08-07T14:44:11.926Z,35.03
2022-08-07T14:46:51.729Z,35.04
2022-08-07T14:52:12.244Z,33.98
2022-08-07T14:54:44.876Z,34.67
2022-08-07T14:57:19.711Z,34.30
2022-08-07T15:00:04.310Z,33.93
2022-08-07T15:02:36.861Z,33.03
2022-08-07T15:07:52.824Z,32.95
2022-08-07T15:10:26.825Z,33.30
2022-08-07T15:12:58.180Z,33.03
2022-08-07T15:15:38.482Z,32.15
2022-08-07T15:18:14.332Z,33.21
2022-08-07T15:21:03.823Z,33.20
2022-08-07T15:25:14.386Z,34.02
2022-08-07T15:26:42.993Z,34.75
2022-08-07T15:30:09.322Z,36.18
2022-08-07T15:32:04.864Z,36.13
2022-08-07T15:34:50.813Z,36.93
2022-08-07T15:37:29.162Z,37.98
2022-08-07T15:40:34.243Z,38.74
2022-08-07T15:49:15.213Z,41.63
2022-08-07T15:54:34.138Z,39.96
2022-08-07T15:57:02.907Z,41.01
2022-08-07T15:59:39.122Z,40.63
2022-08-07T16:02:08.659Z,39.94
2022-08-07T16:04:37.953Z,40.72
2022-08-07T16:08:29.047Z,39.86
2022-08-07T16:10:08.719Z,39.97
2022-08-07T16:13:18.028Z,41.86
2022-08-07T16:15:59.632Z,40.88
2022-08-07T16:18:49.584Z,40.89
2022-08-07T16:21:57.147Z,40.59
2022-08-07T16:24:34.201Z,40.73
2022-08-07T16:27:18.007Z,39.71
2022-08-07T16:30:10.583Z,38.43
2022-08-07T16:32:46.317Z,38.92
2022-08-07T16:35:56.591Z,39.67
2022-08-07T16:38:59.971Z,39.95
2022-08-07T16:41:18.339Z,38.58
2022-08-07T16:44:08.611Z,38.88
2022-08-07T16:47:27.333Z,39.20
2022-08-07T16:50:20.024Z,39.70
2022-08-07T16:54:02.639Z,39.25
2022-08-07T16:56:10.560Z,39.18
2022-08-07T16:59:10.866Z,39.66
2022-08-07T17:02:09.106Z,40.12
2022-08-07T17:04:51.086Z,40.62
2022-08-07T17:07:53.827Z,40.60
2022-08-07T17:10:32.403Z,41.21
2022-08-07T17:13:23.772Z,41.47
2022-08-07T17:16:17.163Z,41.90
2022-08-07T17:19:15.572Z,42.32
2022-08-07T17:21:51.500Z,42.77
2022-08-07T17:24:54.587Z,43.03
2022-08-07T17:27:39.896Z,42.91
2022-08-07T17:30:20.295Z,43.41
2022-08-07T17:34:08.526Z,44.34
2022-08-07T17:36:12.039Z,44.80
2022-08-07T17:39:10.379Z,44.70
2022-08-07T17:42:02.023Z,45.90
2022-08-07T17:44:50.119Z,46.00
2022-08-07T17:47:38.133Z,45.85
2022-08-07T17:50:16.725Z,45.93
2022-08-07T17:52:51.304Z,46.68
2022-08-07T17:56:00.902Z,47.66
2022-08-07T17:58:31.099Z,47.64
2022-08-07T18:01:02.910Z,47.71
2022-08-07T18:04:06.836Z,48.72
2022-08-07T18:06:42.997Z,49.09
2022-08-07T18:09:16.919Z,49.84
2022-08-07T18:12:16.800Z,50.02
2022-08-07T18:14:38.274Z,50.78
2022-08-07T18:18:33.059Z,51.93
2022-08-07T18:21:10.316Z,52.60
2022-08-07T18:23:43.307Z,53.68
2022-08-07T18:26:20.075Z,54.62
2022-08-07T18:28:58.193Z,55.31
2022-08-07T18:31:50.076Z,56.08
2022-08-07T18:34:39.235Z,56.57
2022-08-07T18:38:57.382Z,57.82
2022-08-07T18:40:42.819Z,58.54
2022-08-07T18:43:49.106Z,59.21
2022-08-07T18:46:29.372Z,59.48
2022-08-07T18:50:31.465Z,59.98
2022-08-07T18:52:37.675Z,60.44
2022-08-07T18:55:55.767Z,61.15
2022-08-07T18:58:39.630Z,61.59
2022-08-07T19:02:18.899Z,62.03
2022-08-07T19:04:09.344Z,62.37
2022-08-07T19:06:56.442Z,62.38
2022-08-07T19:09:57.593Z,63.09
2022-08-07T19:12:57.812Z,63.15
2022-08-07T19:16:05.472Z,63.64
2022-08-07T19:18:34.023Z,64.16
2022-08-07T19:21:44.358Z,64.35
2022-08-07T19:24:02.449Z,64.79
2022-08-07T19:27:09.361Z,65.26
2022-08-07T19:31:04.084Z,65.62
2022-08-07T19:32:28.838Z,66.13
2022-08-07T19:35:12.712Z,66.57
2022-08-07T19:37:56.874Z,66.85
2022-08-07T19:40:30.933Z,66.41
2022-08-07T19:43:02.398Z,66.56
2022-08-07T19:46:09.359Z,66.74
2022-08-07T19:48:30.841Z,67.22
2022-08-07T19:51:19.351Z,67.78
2022-08-07T19:54:29.542Z,68.13
2022-08-07T19:57:52.037Z,68.39
2022-08-07T19:59:40.939Z,68.38
2022-08-07T20:02:19.533Z,68.32
2022-08-07T20:04:50.351Z,68.40
2022-08-07T20:07:48.083Z,68.93
2022-08-07T20:10:35.952Z,69.31
2022-08-07T20:13:22.929Z,69.36
2022-08-07T20:15:54.209Z,69.18
2022-08-07T20:18:33.559Z,69.41
2022-08-07T20:21:21.168Z,69.70
2022-08-07T20:24:01.123Z,70.01
2022-08-07T20:26:38.539Z,69.67
2022-08-07T20:29:48.180Z,70.08
2022-08-07T20:32:06.466Z,70.53
2022-08-07T20:34:50.658Z,70.30
2022-08-07T20:37:55.616Z,70.23
2022-08-07T20:40:32.280Z,70.84
2022-08-07T20:43:02.932Z,71.29
2022-08-07T20:46:26.611Z,71.38
2022-08-07T20:48:29.522Z,71.22
2022-08-07T20:51:00.699Z,71.40
2022-08-07T20:54:03.533Z,71.86
2022-08-07T20:56:26.104Z,71.68
2022-08-07T20:58:58.630Z,71.78
2022-08-07T21:01:29.673Z,72.24
2022-08-07T21:04:21.685Z,72.41
2022-08-07T21:06:53.535Z,72.80
2022-08-07T21:09:28.621Z,72.89
2022-08-07T21:12:15.254Z,72.59
2022-08-07T21:15:01.314Z,72.71
2022-08-07T21:18:20.243Z,72.74
2022-08-07T21:20:30.400Z,72.81
2022-08-07T21:23:08.530Z,72.97
2022-08-07T21:25:56.423Z,73.39
2022-08-07T21:28:49.900Z,74.31
2022-08-07T21:32:43.124Z,74.06
2022-08-07T21:34:32.265Z,73.57
2022-08-07T21:37:08.839Z,73.26
2022-08-07T21:39:59.808Z,72.73
2022-08-07T21:42:56.119Z,72.04
2022-08-07T21:46:09.101Z,72.14
2022-08-07T21:48:42.373Z,71.85
2022-08-07T21:51:25.850Z,71.98
2022-08-07T21:54:00.845Z,72.27
2022-08-07T21:56:52.023Z,72.62
2022-08-07T22:00:02.945Z,72.47
2022-08-07T22:02:27.932Z,72.38
2022-08-07T22:05:00.463Z,72.12
2022-08-07T22:07:48.804Z,72.04
2022-08-07T22:10:24.539Z,72.31
2022-08-07T22:13:02.933Z,72.73
2022-08-07T22:16:38.482Z,73.39
2022-08-07T22:18:43.307Z,73.71
2022-08-07T22:21:21.890Z,73.88
2022-08-07T22:24:09.385Z,73.63
2022-08-07T22:26:51.302Z,73.54
2022-08-07T22:29:37.785Z,73.45
2022-08-07T22:32:43.872Z,73.53
2022-08-07T22:35:11.614Z,73.40
2022-08-07T22:38:09.978Z,73.37
2022-08-07T22:41:09.053Z,73.54
2022-08-07T22:43:42.667Z,73.72
2022-08-07T22:47:03.809Z,73.90
2022-08-07T22:49:23.413Z,74.05
2022-08-07T22:52:11.123Z,74.16
2022-08-07T22:55:14.861Z,74.25
2022-08-07T22:58:06.491Z,74.40
2022-08-07T23:00:41.044Z,74.29
2022-08-07T23:03:10.969Z,74.23
2022-08-07T23:06:09.742Z,74.12
2022-08-07T23:08:58.578Z,74.21
2022-08-07T23:11:59.339Z,74.35
2022-08-07T23:14:49.598Z,74.77
2022-08-07T23:17:41.960Z,74.66
2022-08-07T23:20:51.648Z,74.82
2022-08-07T23:24:06.156Z,74.80
2022-08-07T23:26:23.342Z,74.73
2022-08-07T23:29:43.769Z,75.03
2022-08-07T23:34:21.524Z,75.06
2022-08-07T23:35:18.382Z,74.84
2022-08-07T23:38:19.247Z,75.10
2022-08-07T23:41:19.788Z,75.13
2022-08-07T23:44:12.980Z,75.10
2022-08-07T23:46:53.053Z,75.19
2022-08-07T23:49:50.130Z,75.28
2022-08-07T23:53:02.037Z,75.34
2022-08-07T23:55:53.635Z,75.78
2022-08-07T23:58:26.498Z,76.10
